sensor_id;sensor_type;location;lat;lon;timestamp;P1;durP1;ratioP1;P2;durP2;ratioP2
9739;SDS011;4909;42.680;26.324;2022-08-01T00:01:53;2.90;;;1.83;;
9739;SDS011;4909;42.680;26.324;2022-08-01T00:04:19;2.07;;;1.60;;
9739;SDS011;4909;42.680;26.324;2022-08-01T00:06:46;2.73;;;1.97;;
9739;SDS011;4909;42.680;26.324;2022-08-01T00:09:13;2.33;;;1.70;;
9739;SDS011;4909;42.680;26.324;2022-08-01T00:11:40;3.83;;;2.07;;
9739;SDS011;4909;42.680;26.324;2022-08-01T00:14:09;4.87;;;2.37;;
9739;SDS011;4909;42.680;26.324;2022-08-01T00:16:36;4.60;;;2.43;;
9739;SDS011;4909;42.680;26.324;2022-08-01T00:19:03;2.60;;;2.00;;
9739;SDS011;4909;42.680;26.324;2022-08-01T00:21:30;3.93;;;2.60;;
9739;SDS011;4909;42.680;26.324;2022-08-01T00:23:57;3.63;;;2.30;;
9739;SDS011;4909;42.680;26.324;2022-08-01T00:26:25;3.70;;;2.27;;
9739;SDS011;4909;42.680;26.324;2022-08-01T00:28:52;2.60;;;1.83;;
9739;SDS011;4909;42.680;26.324;2022-08-01T00:31:20;5.23;;;2.47;;
9739;SDS011;4909;42.680;26.324;2022-08-01T00:33:47;3.23;;;1.90;;
9739;SDS011;4909;42.680;26.324;2022-08-01T00:36:14;4.73;;;2.33;;
9739;SDS011;4909;42.680;26.324;2022-08-01T00:38:40;3.37;;;2.03;;
9739;SDS011;4909;42.680;26.324;2022-08-01T00:41:07;3.90;;;2.30;;
9739;SDS011;4909;42.680;26.324;2022-08-01T00:43:34;3.83;;;2.10;;
9739;SDS011;4909;42.680;26.324;2022-08-01T00:46:01;3.23;;;2.07;;
9739;SDS011;4909;42.680;26.324;2022-08-01T00:48:29;4.97;;;2.37;;
9739;SDS011;4909;42.680;26.324;2022-08-01T00:50:56;6.13;;;2.67;;
9739;SDS011;4909;42.680;26.324;2022-08-01T00:53:23;4.33;;;2.03;;
9739;SDS011;4909;42.680;26.324;2022-08-01T00:55:51;3.70;;;1.97;;
9739;SDS011;4909;42.680;26.324;2022-08-01T00:58:19;3.63;;;1.97;;
9739;SDS011;4909;42.680;26.324;2022-08-01T01:00:46;3.73;;;2.03;;
9739;SDS011;4909;42.680;26.324;2022-08-01T01:03:13;3.07;;;1.83;;
9739;SDS011;4909;42.680;26.324;2022-08-01T01:05:44;3.80;;;2.07;;
9739;SDS011;4909;42.680;26.324;2022-08-01T01:08:16;4.10;;;2.07;;
9739;SDS011;4909;42.680;26.324;2022-08-01T01:10:52;3.80;;;2.07;;
9739;SDS011;4909;42.680;26.324;2022-08-01T01:13:23;3.17;;;1.80;;
9739;SDS011;4909;42.680;26.324;2022-08-01T01:15:59;2.83;;;1.73;;
9739;SDS011;4909;42.680;26.324;2022-08-01T01:18:29;3.60;;;1.90;;
9739;SDS011;4909;42.680;26.324;2022-08-01T01:21:03;4.10;;;1.97;;
9739;SDS011;4909;42.680;26.324;2022-08-01T01:23:44;3.17;;;1.80;;
9739;SDS011;4909;42.680;26.324;2022-08-01T01:26:31;3.77;;;2.00;;
9739;SDS011;4909;42.680;26.324;2022-08-01T01:29:08;3.13;;;1.73;;
9739;SDS011;4909;42.680;26.324;2022-08-01T01:31:40;5.83;;;2.70;;
9739;SDS011;4909;42.680;26.324;2022-08-01T01:34:10;4.50;;;2.00;;
9739;SDS011;4909;42.680;26.324;2022-08-01T01:36:39;3.53;;;1.87;;
9739;SDS011;4909;42.680;26.324;2022-08-01T01:39:07;3.60;;;1.93;;
9739;SDS011;4909;42.680;26.324;2022-08-01T01:41:34;3.63;;;1.83;;
9739;SDS011;4909;42.680;26.324;2022-08-01T01:44:02;3.00;;;1.80;;
9739;SDS011;4909;42.680;26.324;2022-08-01T01:46:33;4.53;;;2.20;;
9739;SDS011;4909;42.680;26.324;2022-08-01T01:49:01;2.70;;;1.77;;
9739;SDS011;4909;42.680;26.324;2022-08-01T01:51:29;5.17;;;2.30;;
9739;SDS011;4909;42.680;26.324;2022-08-01T01:53:57;2.93;;;1.70;;
9739;SDS011;4909;42.680;26.324;2022-08-01T01:56:25;3.23;;;1.90;;
9739;SDS011;4909;42.680;26.324;2022-08-01T01:58:54;4.10;;;2.40;;
9739;SDS011;4909;42.680;26.324;2022-08-01T02:01:24;4.90;;;2.33;;
9739;SDS011;4909;42.680;26.324;2022-08-01T02:03:55;3.87;;;2.10;;
9739;SDS011;4909;42.680;26.324;2022-08-01T02:06:23;3.90;;;2.47;;
9739;SDS011;4909;42.680;26.324;2022-08-01T02:08:52;4.83;;;2.27;;
9739;SDS011;4909;42.680;26.324;2022-08-01T02:11:20;4.23;;;2.03;;
9739;SDS011;4909;42.680;26.324;2022-08-01T02:13:50;4.87;;;2.73;;
9739;SDS011;4909;42.680;26.324;2022-08-01T02:16:21;2.87;;;1.97;;
9739;SDS011;4909;42.680;26.324;2022-08-01T02:18:50;2.60;;;1.67;;
9739;SDS011;4909;42.680;26.324;2022-08-01T02:21:20;10.60;;;3.83;;
9739;SDS011;4909;42.680;26.324;2022-08-01T02:23:53;3.77;;;2.17;;
9739;SDS011;4909;42.680;26.324;2022-08-01T02:26:21;3.57;;;2.23;;
9739;SDS011;4909;42.680;26.324;2022-08-01T02:28:50;2.50;;;1.77;;
9739;SDS011;4909;42.680;26.324;2022-08-01T02:31:21;5.30;;;2.47;;
9739;SDS011;4909;42.680;26.324;2022-08-01T02:33:53;3.03;;;1.90;;
9739;SDS011;4909;42.680;26.324;2022-08-01T02:36:25;5.07;;;2.67;;
9739;SDS011;4909;42.680;26.324;2022-08-01T02:38:54;2.73;;;2.10;;
9739;SDS011;4909;42.680;26.324;2022-08-01T02:41:26;4.90;;;2.23;;
9739;SDS011;4909;42.680;26.324;2022-08-01T02:43:56;2.90;;;1.73;;
9739;SDS011;4909;42.680;26.324;2022-08-01T02:46:29;5.97;;;2.43;;
9739;SDS011;4909;42.680;26.324;2022-08-01T02:49:03;2.57;;;1.93;;
9739;SDS011;4909;42.680;26.324;2022-08-01T02:51:34;3.77;;;2.63;;
9739;SDS011;4909;42.680;26.324;2022-08-01T02:54:02;3.23;;;2.23;;
9739;SDS011;4909;42.680;26.324;2022-08-01T02:56:33;2.30;;;2.17;;
9739;SDS011;4909;42.680;26.324;2022-08-01T02:59:02;4.63;;;2.20;;
9739;SDS011;4909;42.680;26.324;2022-08-01T03:01:31;3.50;;;1.90;;
9739;SDS011;4909;42.680;26.324;2022-08-01T03:04:00;3.63;;;2.07;;
9739;SDS011;4909;42.680;26.324;2022-08-01T03:06:28;2.60;;;1.70;;
9739;SDS011;4909;42.680;26.324;2022-08-01T03:08:57;4.93;;;2.23;;
9739;SDS011;4909;42.680;26.324;2022-08-01T03:11:26;4.20;;;2.17;;
9739;SDS011;4909;42.680;26.324;2022-08-01T03:13:55;4.87;;;2.33;;
9739;SDS011;4909;42.680;26.324;2022-08-01T03:16:23;5.03;;;2.27;;
9739;SDS011;4909;42.680;26.324;2022-08-01T03:18:52;3.17;;;1.63;;
9739;SDS011;4909;42.680;26.324;2022-08-01T03:21:21;5.00;;;2.07;;
9739;SDS011;4909;42.680;26.324;2022-08-01T03:23:50;3.77;;;1.87;;
9739;SDS011;4909;42.680;26.324;2022-08-01T03:26:23;4.73;;;1.90;;
9739;SDS011;4909;42.680;26.324;2022-08-01T03:28:55;4.33;;;1.87;;
9739;SDS011;4909;42.680;26.324;2022-08-01T03:31:23;4.20;;;1.90;;
9739;SDS011;4909;42.680;26.324;2022-08-01T03:33:52;2.97;;;1.57;;
9739;SDS011;4909;42.680;26.324;2022-08-01T03:36:20;3.67;;;2.03;;
9739;SDS011;4909;42.680;26.324;2022-08-01T03:38:50;4.20;;;1.87;;
9739;SDS011;4909;42.680;26.324;2022-08-01T03:41:24;3.90;;;1.87;;
9739;SDS011;4909;42.680;26.324;2022-08-01T03:43:57;5.37;;;2.30;;
9739;SDS011;4909;42.680;26.324;2022-08-01T03:46:29;4.23;;;1.80;;
9739;SDS011;4909;42.680;26.324;2022-08-01T03:49:03;4.40;;;1.83;;
9739;SDS011;4909;42.680;26.324;2022-08-01T03:51:34;6.60;;;2.47;;
9739;SDS011;4909;42.680;26.324;2022-08-01T03:54:04;2.53;;;1.30;;
9739;SDS011;4909;42.680;26.324;2022-08-01T03:56:34;4.17;;;1.83;;
9739;SDS011;4909;42.680;26.324;2022-08-01T03:59:03;4.47;;;2.00;;
9739;SDS011;4909;42.680;26.324;2022-08-01T04:01:30;5.23;;;2.03;;
9739;SDS011;4909;42.680;26.324;2022-08-01T04:03:58;4.67;;;1.97;;
9739;SDS011;4909;42.680;26.324;2022-08-01T04:06:26;1.83;;;1.17;;
9739;SDS011;4909;42.680;26.324;2022-08-01T04:08:53;3.30;;;1.53;;
9739;SDS011;4909;42.680;26.324;2022-08-01T04:11:24;2.30;;;1.40;;
9739;SDS011;4909;42.680;26.324;2022-08-01T04:13:53;4.37;;;1.97;;
9739;SDS011;4909;42.680;26.324;2022-08-01T04:16:21;4.10;;;1.93;;
9739;SDS011;4909;42.680;26.324;2022-08-01T04:18:48;2.83;;;1.60;;
9739;SDS011;4909;42.680;26.324;2022-08-01T04:21:15;4.23;;;1.83;;
9739;SDS011;4909;42.680;26.324;2022-08-01T04:23:46;3.67;;;1.80;;
9739;SDS011;4909;42.680;26.324;2022-08-01T04:26:16;4.10;;;1.77;;
9739;SDS011;4909;42.680;26.324;2022-08-01T04:28:44;8.57;;;2.87;;
9739;SDS011;4909;42.680;26.324;2022-08-01T04:31:16;2.53;;;1.70;;
9739;SDS011;4909;42.680;26.324;2022-08-01T04:33:45;2.10;;;1.43;;
9739;SDS011;4909;42.680;26.324;2022-08-01T04:36:15;2.60;;;1.63;;
9739;SDS011;4909;42.680;26.324;2022-08-01T04:38:46;8.93;;;3.17;;
9739;SDS011;4909;42.680;26.324;2022-08-01T04:41:16;4.03;;;2.30;;
9739;SDS011;4909;42.680;26.324;2022-08-01T04:43:45;4.30;;;2.07;;
9739;SDS011;4909;42.680;26.324;2022-08-01T04:46:12;3.97;;;1.90;;
9739;SDS011;4909;42.680;26.324;2022-08-01T04:48:43;1.90;;;1.30;;
9739;SDS011;4909;42.680;26.324;2022-08-01T04:51:11;1.87;;;1.37;;
9739;SDS011;4909;42.680;26.324;2022-08-01T04:53:40;5.30;;;2.17;;
9739;SDS011;4909;42.680;26.324;2022-08-01T04:56:07;5.17;;;2.27;;
9739;SDS011;4909;42.680;26.324;2022-08-01T04:58:34;4.50;;;2.00;;
9739;SDS011;4909;42.680;26.324;2022-08-01T05:01:01;6.87;;;2.67;;
9739;SDS011;4909;42.680;26.324;2022-08-01T05:03:28;4.63;;;2.07;;
9739;SDS011;4909;42.680;26.324;2022-08-01T05:05:56;4.87;;;2.07;;
9739;SDS011;4909;42.680;26.324;2022-08-01T05:08:23;7.37;;;2.77;;
9739;SDS011;4909;42.680;26.324;2022-08-01T05:10:50;3.50;;;1.83;;
9739;SDS011;4909;42.680;26.324;2022-08-01T05:13:17;3.60;;;2.00;;
9739;SDS011;4909;42.680;26.324;2022-08-01T05:15:44;3.63;;;1.97;;
9739;SDS011;4909;42.680;26.324;2022-08-01T05:18:11;1.70;;;1.50;;
9739;SDS011;4909;42.680;26.324;2022-08-01T05:20:39;1.87;;;1.50;;
9739;SDS011;4909;42.680;26.324;2022-08-01T05:23:08;1.83;;;1.63;;
9739;SDS011;4909;42.680;26.324;2022-08-01T05:25:35;8.03;;;3.00;;
9739;SDS011;4909;42.680;26.324;2022-08-01T05:28:02;1.30;;;1.20;;
9739;SDS011;4909;42.680;26.324;2022-08-01T05:30:29;2.57;;;1.77;;
9739;SDS011;4909;42.680;26.324;2022-08-01T05:32:56;3.03;;;1.90;;
9739;SDS011;4909;42.680;26.324;2022-08-01T05:35:22;4.27;;;2.10;;
9739;SDS011;4909;42.680;26.324;2022-08-01T05:37:49;3.70;;;1.90;;
9739;SDS011;4909;42.680;26.324;2022-08-01T05:40:18;2.43;;;1.63;;
9739;SDS011;4909;42.680;26.324;2022-08-01T05:42:45;3.70;;;2.07;;
9739;SDS011;4909;42.680;26.324;2022-08-01T05:45:12;5.13;;;2.40;;
9739;SDS011;4909;42.680;26.324;2022-08-01T05:47:39;5.10;;;2.33;;
9739;SDS011;4909;42.680;26.324;2022-08-01T05:50:06;4.77;;;2.23;;
9739;SDS011;4909;42.680;26.324;2022-08-01T05:52:34;3.07;;;1.93;;
9739;SDS011;4909;42.680;26.324;2022-08-01T05:55:01;3.60;;;1.90;;
9739;SDS011;4909;42.680;26.324;2022-08-01T05:57:29;3.50;;;2.10;;
9739;SDS011;4909;42.680;26.324;2022-08-01T05:59:56;2.23;;;1.60;;
9739;SDS011;4909;42.680;26.324;2022-08-01T06:02:22;7.57;;;2.87;;
9739;SDS011;4909;42.680;26.324;2022-08-01T06:04:49;3.37;;;1.83;;
9739;SDS011;4909;42.680;26.324;2022-08-01T06:07:16;4.57;;;2.03;;
9739;SDS011;4909;42.680;26.324;2022-08-01T06:09:43;8.43;;;3.17;;
9739;SDS011;4909;42.680;26.324;2022-08-01T06:12:10;4.93;;;2.27;;
9739;SDS011;4909;42.680;26.324;2022-08-01T06:14:38;7.10;;;2.80;;
9739;SDS011;4909;42.680;26.324;2022-08-01T06:17:05;4.10;;;2.10;;
9739;SDS011;4909;42.680;26.324;2022-08-01T06:19:32;5.97;;;2.60;;
9739;SDS011;4909;42.680;26.324;2022-08-01T06:21:58;8.90;;;3.43;;
9739;SDS011;4909;42.680;26.324;2022-08-01T06:24:25;2.23;;;1.63;;
9739;SDS011;4909;42.680;26.324;2022-08-01T06:26:52;4.80;;;2.30;;
9739;SDS011;4909;42.680;26.324;2022-08-01T06:29:19;10.93;;;3.83;;
9739;SDS011;4909;42.680;26.324;2022-08-01T06:31:47;3.70;;;1.90;;
9739;SDS011;4909;42.680;26.324;2022-08-01T06:34:14;4.33;;;2.30;;
9739;SDS011;4909;42.680;26.324;2022-08-01T06:36:41;2.87;;;1.97;;
9739;SDS011;4909;42.680;26.324;2022-08-01T06:39:08;8.93;;;3.47;;
9739;SDS011;4909;42.680;26.324;2022-08-01T06:41:35;1.90;;;1.50;;
9739;SDS011;4909;42.680;26.324;2022-08-01T06:44:02;4.23;;;2.30;;
9739;SDS011;4909;42.680;26.324;2022-08-01T06:46:29;9.63;;;3.83;;
9739;SDS011;4909;42.680;26.324;2022-08-01T06:48:57;5.80;;;2.50;;
9739;SDS011;4909;42.680;26.324;2022-08-01T06:51:24;4.17;;;2.10;;
9739;SDS011;4909;42.680;26.324;2022-08-01T06:53:51;2.70;;;1.90;;
9739;SDS011;4909;42.680;26.324;2022-08-01T06:56:19;3.90;;;2.03;;
9739;SDS011;4909;42.680;26.324;2022-08-01T06:58:46;9.03;;;3.60;;
9739;SDS011;4909;42.680;26.324;2022-08-01T07:01:12;7.50;;;3.20;;
9739;SDS011;4909;42.680;26.324;2022-08-01T07:03:39;4.50;;;2.33;;
9739;SDS011;4909;42.680;26.324;2022-08-01T07:06:08;4.77;;;2.40;;
9739;SDS011;4909;42.680;26.324;2022-08-01T07:08:34;5.50;;;2.57;;
9739;SDS011;4909;42.680;26.324;2022-08-01T07:11:01;6.73;;;3.00;;
9739;SDS011;4909;42.680;26.324;2022-08-01T07:13:28;4.20;;;2.03;;
9739;SDS011;4909;42.680;26.324;2022-08-01T07:15:56;5.03;;;2.57;;
9739;SDS011;4909;42.680;26.324;2022-08-01T07:18:23;3.43;;;2.00;;
9739;SDS011;4909;42.680;26.324;2022-08-01T07:20:50;4.33;;;2.20;;
9739;SDS011;4909;42.680;26.324;2022-08-01T07:23:18;5.03;;;2.60;;
9739;SDS011;4909;42.680;26.324;2022-08-01T07:25:45;8.87;;;3.37;;
9739;SDS011;4909;42.680;26.324;2022-08-01T07:28:13;4.37;;;2.40;;
9739;SDS011;4909;42.680;26.324;2022-08-01T07:30:40;6.17;;;2.73;;
9739;SDS011;4909;42.680;26.324;2022-08-01T07:33:09;7.97;;;3.33;;
9739;SDS011;4909;42.680;26.324;2022-08-01T07:35:36;8.03;;;3.47;;
9739;SDS011;4909;42.680;26.324;2022-08-01T07:38:03;6.40;;;3.27;;
9739;SDS011;4909;42.680;26.324;2022-08-01T07:40:31;6.37;;;2.90;;
9739;SDS011;4909;42.680;26.324;2022-08-01T07:42:58;5.80;;;2.77;;
9739;SDS011;4909;42.680;26.324;2022-08-01T07:45:25;4.20;;;2.63;;
9739;SDS011;4909;42.680;26.324;2022-08-01T07:47:52;5.20;;;3.03;;
9739;SDS011;4909;42.680;26.324;2022-08-01T07:50:19;6.47;;;3.13;;
9739;SDS011;4909;42.680;26.324;2022-08-01T07:52:46;6.67;;;3.47;;
9739;SDS011;4909;42.680;26.324;2022-08-01T07:55:13;4.67;;;3.03;;
9739;SDS011;4909;42.680;26.324;2022-08-01T07:57:42;7.27;;;3.70;;
9739;SDS011;4909;42.680;26.324;2022-08-01T08:00:09;4.97;;;2.90;;
9739;SDS011;4909;42.680;26.324;2022-08-01T08:02:36;8.30;;;3.77;;
9739;SDS011;4909;42.680;26.324;2022-08-01T08:05:03;3.53;;;2.67;;
9739;SDS011;4909;42.680;26.324;2022-08-01T08:07:32;8.90;;;3.57;;
9739;SDS011;4909;42.680;26.324;2022-08-01T08:09:59;4.47;;;2.90;;
9739;SDS011;4909;42.680;26.324;2022-08-01T08:12:26;4.73;;;2.90;;
9739;SDS011;4909;42.680;26.324;2022-08-01T08:14:54;4.90;;;3.17;;
9739;SDS011;4909;42.680;26.324;2022-08-01T08:17:21;6.93;;;3.40;;
9739;SDS011;4909;42.680;26.324;2022-08-01T08:19:48;4.90;;;3.17;;
9739;SDS011;4909;42.680;26.324;2022-08-01T08:22:15;5.77;;;3.40;;
9739;SDS011;4909;42.680;26.324;2022-08-01T08:24:41;3.57;;;3.00;;
9739;SDS011;4909;42.680;26.324;2022-08-01T08:27:08;5.03;;;3.00;;
9739;SDS011;4909;42.680;26.324;2022-08-01T08:29:35;3.83;;;2.90;;
9739;SDS011;4909;42.680;26.324;2022-08-01T08:32:04;3.77;;;3.13;;
9739;SDS011;4909;42.680;26.324;2022-08-01T08:34:32;4.83;;;3.60;;
9739;SDS011;4909;42.680;26.324;2022-08-01T08:36:59;3.53;;;2.93;;
9739;SDS011;4909;42.680;26.324;2022-08-01T08:39:26;4.93;;;3.67;;
9739;SDS011;4909;42.680;26.324;2022-08-01T08:41:54;5.93;;;4.03;;
9739;SDS011;4909;42.680;26.324;2022-08-01T08:44:22;5.53;;;3.67;;
9739;SDS011;4909;42.680;26.324;2022-08-01T08:46:50;6.87;;;4.33;;
9739;SDS011;4909;42.680;26.324;2022-08-01T08:49:20;5.43;;;4.17;;
9739;SDS011;4909;42.680;26.324;2022-08-01T08:51:49;7.57;;;4.70;;
9739;SDS011;4909;42.680;26.324;2022-08-01T08:54:18;5.60;;;4.03;;
9739;SDS011;4909;42.680;26.324;2022-08-01T08:56:47;3.97;;;3.57;;
9739;SDS011;4909;42.680;26.324;2022-08-01T08:59:15;5.03;;;3.87;;
9739;SDS011;4909;42.680;26.324;2022-08-01T09:01:42;5.27;;;4.07;;
9739;SDS011;4909;42.680;26.324;2022-08-01T09:04:10;5.90;;;3.87;;
9739;SDS011;4909;42.680;26.324;2022-08-01T09:06:39;4.23;;;3.77;;
9739;SDS011;4909;42.680;26.324;2022-08-01T09:09:06;6.67;;;4.97;;
9739;SDS011;4909;42.680;26.324;2022-08-01T09:11:34;5.00;;;4.40;;
9739;SDS011;4909;42.680;26.324;2022-08-01T09:14:05;5.67;;;4.67;;
9739;SDS011;4909;42.680;26.324;2022-08-01T09:16:33;10.20;;;5.27;;
9739;SDS011;4909;42.680;26.324;2022-08-01T09:19:09;5.33;;;3.90;;
9739;SDS011;4909;42.680;26.324;2022-08-01T09:21:40;5.30;;;4.57;;
9739;SDS011;4909;42.680;26.324;2022-08-01T09:24:21;10.10;;;5.77;;
9739;SDS011;4909;42.680;26.324;2022-08-01T09:26:48;6.57;;;5.00;;
9739;SDS011;4909;42.680;26.324;2022-08-01T09:29:19;9.73;;;6.07;;
9739;SDS011;4909;42.680;26.324;2022-08-01T09:31:48;10.73;;;6.17;;
9739;SDS011;4909;42.680;26.324;2022-08-01T09:34:15;6.63;;;4.53;;
9739;SDS011;4909;42.680;26.324;2022-08-01T09:36:51;8.53;;;5.73;;
9739;SDS011;4909;42.680;26.324;2022-08-01T09:39:21;9.63;;;5.47;;
9739;SDS011;4909;42.680;26.324;2022-08-01T09:41:49;7.77;;;4.97;;
9739;SDS011;4909;42.680;26.324;2022-08-01T09:44:16;6.27;;;4.83;;
9739;SDS011;4909;42.680;26.324;2022-08-01T09:46:48;4.77;;;4.27;;
9739;SDS011;4909;42.680;26.324;2022-08-01T09:49:26;6.10;;;4.80;;
9739;SDS011;4909;42.680;26.324;2022-08-01T09:51:56;7.73;;;5.57;;
9739;SDS011;4909;42.680;26.324;2022-08-01T09:54:30;8.33;;;5.83;;
9739;SDS011;4909;42.680;26.324;2022-08-01T09:57:09;11.20;;;8.17;;
9739;SDS011;4909;42.680;26.324;2022-08-01T09:59:38;7.50;;;6.90;;
9739;SDS011;4909;42.680;26.324;2022-08-01T10:02:07;8.80;;;7.87;;
9739;SDS011;4909;42.680;26.324;2022-08-01T10:04:36;5.30;;;4.80;;
9739;SDS011;4909;42.680;26.324;2022-08-01T10:07:05;4.07;;;3.77;;
9739;SDS011;4909;42.680;26.324;2022-08-01T10:09:34;6.50;;;4.80;;
9739;SDS011;4909;42.680;26.324;2022-08-01T10:12:02;7.60;;;5.03;;
9739;SDS011;4909;42.680;26.324;2022-08-01T10:14:30;8.57;;;5.07;;
9739;SDS011;4909;42.680;26.324;2022-08-01T10:16:58;6.43;;;4.50;;
9739;SDS011;4909;42.680;26.324;2022-08-01T10:19:28;10.10;;;5.57;;
9739;SDS011;4909;42.680;26.324;2022-08-01T10:21:57;9.97;;;5.60;;
9739;SDS011;4909;42.680;26.324;2022-08-01T10:24:26;12.53;;;6.47;;
9739;SDS011;4909;42.680;26.324;2022-08-01T10:26:58;6.07;;;4.40;;
9739;SDS011;4909;42.680;26.324;2022-08-01T10:29:30;7.37;;;4.77;;
9739;SDS011;4909;42.680;26.324;2022-08-01T10:32:04;7.83;;;4.50;;
9739;SDS011;4909;42.680;26.324;2022-08-01T10:34:31;3.77;;;3.47;;
9739;SDS011;4909;42.680;26.324;2022-08-01T10:37:00;5.93;;;4.40;;
9739;SDS011;4909;42.680;26.324;2022-08-01T10:39:29;4.30;;;3.30;;
9739;SDS011;4909;42.680;26.324;2022-08-01T10:41:57;7.20;;;4.63;;
9739;SDS011;4909;42.680;26.324;2022-08-01T10:44:25;4.93;;;3.93;;
9739;SDS011;4909;42.680;26.324;2022-08-01T10:46:55;3.63;;;3.40;;
9739;SDS011;4909;42.680;26.324;2022-08-01T10:49:29;4.27;;;3.77;;
9739;SDS011;4909;42.680;26.324;2022-08-01T10:51:58;6.87;;;4.83;;
9739;SDS011;4909;42.680;26.324;2022-08-01T10:54:25;3.83;;;3.53;;
9739;SDS011;4909;42.680;26.324;2022-08-01T10:56:54;3.43;;;3.13;;
9739;SDS011;4909;42.680;26.324;2022-08-01T10:59:26;3.70;;;3.40;;
9739;SDS011;4909;42.680;26.324;2022-08-01T11:01:56;4.27;;;3.60;;
9739;SDS011;4909;42.680;26.324;2022-08-01T11:04:34;5.13;;;3.80;;
9739;SDS011;4909;42.680;26.324;2022-08-01T11:07:11;6.43;;;3.87;;
9739;SDS011;4909;42.680;26.324;2022-08-01T11:09:43;2.90;;;2.70;;
9739;SDS011;4909;42.680;26.324;2022-08-01T11:12:14;3.10;;;2.90;;
9739;SDS011;4909;42.680;26.324;2022-08-01T11:17:49;5.40;;;3.77;;
9739;SDS011;4909;42.680;26.324;2022-08-01T11:20:17;4.17;;;3.50;;
9739;SDS011;4909;42.680;26.324;2022-08-01T11:31:45;6.93;;;4.00;;
9739;SDS011;4909;42.680;26.324;2022-08-01T11:34:12;5.27;;;3.43;;
9739;SDS011;4909;42.680;26.324;2022-08-01T11:36:39;4.07;;;3.60;;
9739;SDS011;4909;42.680;26.324;2022-08-01T11:39:13;6.97;;;4.13;;
9739;SDS011;4909;42.680;26.324;2022-08-01T11:41:42;3.17;;;2.87;;
9739;SDS011;4909;42.680;26.324;2022-08-01T11:44:09;3.20;;;2.93;;
9739;SDS011;4909;42.680;26.324;2022-08-01T11:46:46;3.50;;;3.17;;
9739;SDS011;4909;42.680;26.324;2022-08-01T11:49:27;3.73;;;3.43;;
9739;SDS011;4909;42.680;26.324;2022-08-01T11:52:01;6.20;;;3.90;;
9739;SDS011;4909;42.680;26.324;2022-08-01T11:54:31;3.60;;;3.30;;
9739;SDS011;4909;42.680;26.324;2022-08-01T11:57:01;5.13;;;3.67;;
9739;SDS011;4909;42.680;26.324;2022-08-01T11:59:34;6.33;;;3.90;;
9739;SDS011;4909;42.680;26.324;2022-08-01T12:02:03;4.63;;;3.67;;
9739;SDS011;4909;42.680;26.324;2022-08-01T12:04:47;8.20;;;4.73;;
9739;SDS011;4909;42.680;26.324;2022-08-01T12:07:15;5.90;;;3.73;;
9739;SDS011;4909;42.680;26.324;2022-08-01T12:09:43;6.53;;;3.93;;
9739;SDS011;4909;42.680;26.324;2022-08-01T12:12:12;7.73;;;3.87;;
9739;SDS011;4909;42.680;26.324;2022-08-01T12:14:42;4.77;;;3.57;;
9739;SDS011;4909;42.680;26.324;2022-08-01T12:17:10;8.87;;;4.83;;
9739;SDS011;4909;42.680;26.324;2022-08-01T12:19:37;6.40;;;4.37;;
9739;SDS011;4909;42.680;26.324;2022-08-01T12:22:09;4.63;;;3.63;;
9739;SDS011;4909;42.680;26.324;2022-08-01T12:24:39;5.40;;;3.77;;
9739;SDS011;4909;42.680;26.324;2022-08-01T12:27:09;7.03;;;4.10;;
9739;SDS011;4909;42.680;26.324;2022-08-01T12:29:38;8.67;;;4.73;;
9739;SDS011;4909;42.680;26.324;2022-08-01T12:35:02;3.53;;;2.97;;
9739;SDS011;4909;42.680;26.324;2022-08-01T12:37:30;6.30;;;3.70;;
9739;SDS011;4909;42.680;26.324;2022-08-01T12:39:58;6.13;;;3.90;;
9739;SDS011;4909;42.680;26.324;2022-08-01T12:42:25;3.60;;;3.20;;
9739;SDS011;4909;42.680;26.324;2022-08-01T12:44:53;4.00;;;3.40;;
9739;SDS011;4909;42.680;26.324;2022-08-01T12:47:21;9.77;;;4.93;;
9739;SDS011;4909;42.680;26.324;2022-08-01T12:49:49;5.47;;;3.67;;
9739;SDS011;4909;42.680;26.324;2022-08-01T12:52:18;7.00;;;4.20;;
9739;SDS011;4909;42.680;26.324;2022-08-01T12:55:00;6.00;;;3.90;;
9739;SDS011;4909;42.680;26.324;2022-08-01T12:57:28;5.10;;;3.40;;
9739;SDS011;4909;42.680;26.324;2022-08-01T13:00:04;6.93;;;3.90;;
9739;SDS011;4909;42.680;26.324;2022-08-01T13:02:32;4.40;;;3.37;;
9739;SDS011;4909;42.680;26.324;2022-08-01T13:05:00;4.10;;;3.20;;
9739;SDS011;4909;42.680;26.324;2022-08-01T13:07:35;6.90;;;4.00;;
9739;SDS011;4909;42.680;26.324;2022-08-01T13:10:08;5.97;;;3.53;;
9739;SDS011;4909;42.680;26.324;2022-08-01T13:12:36;4.80;;;3.83;;
9739;SDS011;4909;42.680;26.324;2022-08-01T13:15:16;8.07;;;4.07;;
9739;SDS011;4909;42.680;26.324;2022-08-01T13:17:44;7.03;;;4.00;;
9739;SDS011;4909;42.680;26.324;2022-08-01T13:20:20;6.57;;;3.93;;
9739;SDS011;4909;42.680;26.324;2022-08-01T13:22:50;5.60;;;3.80;;
9739;SDS011;4909;42.680;26.324;2022-08-01T13:25:17;7.63;;;3.97;;
9739;SDS011;4909;42.680;26.324;2022-08-01T13:27:44;6.63;;;3.67;;
9739;SDS011;4909;42.680;26.324;2022-08-01T13:30:11;6.47;;;3.60;;
9739;SDS011;4909;42.680;26.324;2022-08-01T13:32:39;7.63;;;3.87;;
9739;SDS011;4909;42.680;26.324;2022-08-01T13:35:08;5.63;;;3.43;;
9739;SDS011;4909;42.680;26.324;2022-08-01T13:37:38;9.67;;;4.30;;
9739;SDS011;4909;42.680;26.324;2022-08-01T13:40:09;9.63;;;4.80;;
9739;SDS011;4909;42.680;26.324;2022-08-01T13:42:37;8.57;;;4.17;;
9739;SDS011;4909;42.680;26.324;2022-08-01T13:45:05;6.73;;;3.70;;
9739;SDS011;4909;42.680;26.324;2022-08-01T13:47:36;5.13;;;3.57;;
9739;SDS011;4909;42.680;26.324;2022-08-01T13:50:04;6.13;;;3.77;;
9739;SDS011;4909;42.680;26.324;2022-08-01T13:52:31;3.67;;;2.80;;
9739;SDS011;4909;42.680;26.324;2022-08-01T13:54:58;4.80;;;3.47;;
9739;SDS011;4909;42.680;26.324;2022-08-01T13:57:27;8.60;;;4.47;;
9739;SDS011;4909;42.680;26.324;2022-08-01T13:59:54;5.93;;;3.47;;
9739;SDS011;4909;42.680;26.324;2022-08-01T14:02:24;9.23;;;4.37;;
9739;SDS011;4909;42.680;26.324;2022-08-01T14:04:52;8.93;;;4.13;;
9739;SDS011;4909;42.680;26.324;2022-08-01T14:07:19;10.33;;;4.80;;
9739;SDS011;4909;42.680;26.324;2022-08-01T14:09:46;6.73;;;3.70;;
9739;SDS011;4909;42.680;26.324;2022-08-01T14:12:13;9.63;;;4.53;;
9739;SDS011;4909;42.680;26.324;2022-08-01T14:14:41;6.03;;;3.50;;
9739;SDS011;4909;42.680;26.324;2022-08-01T14:17:08;14.17;;;5.37;;
9739;SDS011;4909;42.680;26.324;2022-08-01T14:19:35;5.10;;;3.53;;
9739;SDS011;4909;42.680;26.324;2022-08-01T14:22:02;6.97;;;3.83;;
9739;SDS011;4909;42.680;26.324;2022-08-01T14:24:29;5.20;;;3.33;;
9739;SDS011;4909;42.680;26.324;2022-08-01T14:26:56;3.60;;;2.87;;
9739;SDS011;4909;42.680;26.324;2022-08-01T14:29:23;8.40;;;3.90;;
9739;SDS011;4909;42.680;26.324;2022-08-01T14:31:51;4.77;;;3.07;;
9739;SDS011;4909;42.680;26.324;2022-08-01T14:34:18;5.67;;;3.20;;
9739;SDS011;4909;42.680;26.324;2022-08-01T14:36:45;4.83;;;3.23;;
9739;SDS011;4909;42.680;26.324;2022-08-01T14:39:12;4.87;;;3.03;;
9739;SDS011;4909;42.680;26.324;2022-08-01T14:41:39;4.43;;;2.83;;
9739;SDS011;4909;42.680;26.324;2022-08-01T14:44:06;3.97;;;2.30;;
9739;SDS011;4909;42.680;26.324;2022-08-01T14:46:36;7.20;;;3.03;;
9739;SDS011;4909;42.680;26.324;2022-08-01T14:49:04;3.70;;;2.13;;
9739;SDS011;4909;42.680;26.324;2022-08-01T14:51:31;4.50;;;2.30;;
9739;SDS011;4909;42.680;26.324;2022-08-01T14:53:59;4.97;;;2.30;;
9739;SDS011;4909;42.680;26.324;2022-08-01T14:56:26;3.43;;;2.03;;
9739;SDS011;4909;42.680;26.324;2022-08-01T14:58:53;4.33;;;2.20;;
9739;SDS011;4909;42.680;26.324;2022-08-01T15:01:20;7.30;;;3.10;;
9739;SDS011;4909;42.680;26.324;2022-08-01T15:03:47;3.37;;;2.10;;
9739;SDS011;4909;42.680;26.324;2022-08-01T15:06:17;3.80;;;2.27;;
9739;SDS011;4909;42.680;26.324;2022-08-01T15:08:44;7.13;;;3.00;;
9739;SDS011;4909;42.680;26.324;2022-08-01T15:11:11;3.80;;;2.20;;
9739;SDS011;4909;42.680;26.324;2022-08-01T15:13:38;5.67;;;2.90;;
9739;SDS011;4909;42.680;26.324;2022-08-01T15:16:04;4.17;;;2.40;;
9739;SDS011;4909;42.680;26.324;2022-08-01T15:18:31;2.97;;;2.53;;
9739;SDS011;4909;42.680;26.324;2022-08-01T15:20:58;3.03;;;2.40;;
9739;SDS011;4909;42.680;26.324;2022-08-01T15:23:26;3.77;;;2.93;;
9739;SDS011;4909;42.680;26.324;2022-08-01T15:25:53;4.13;;;2.97;;